CheckWX is a tool to help pilots better visualize weather data.  It is not intended as a substitute for an official pre-flight weather briefing.

20:11:15 UTC

KGUC METAR
Gunnison-Crested Butte Regional Airport
Gunnison, Colorado, USA
Current

15 mins ago

KGUC 201956Z AUTO 01004KT 10SM UP FEW027 SCT037 BKN060 02/00 A2977 RMK AO2 RAB38E47UPB47 SLP081 P0000 T00220000 FZRANO
Observed
Nov-20 @ 19:56 UTC
Wind
  • 010° at 4 KTS
Visibility
10 SM
Flight Rules
VFR
Conditions
Unknown precipitation
Cloud Levels
  • Few at 2,700' AGL
  • Scattered at 3,700' AGL
  • Broken at 6,000' AGL
Temperature
C / 36°F
Dewpoint
C / 32°F
Humidity
87%
Altimeter
29.77" Hg
Pressure
1008.12 hPa
Current Rain
0.01"
Previous

32 mins ago

KGUC 201939Z AUTO 06004KT 10SM -RA FEW010 BKN037 OVC049 01/M01 A2977 RMK AO2 RAB38 P0000 FZRANO
Observed
Nov-20 @ 19:39 UTC
Wind
  • 060° at 4 KTS
Visibility
10 SM
Flight Rules
VFR
Conditions
Light Rain
Cloud Levels
  • Few at 1,000' AGL
  • Broken at 3,700' AGL
  • Overcast at 4,900' AGL
Temperature
C / 34°F
Dewpoint
-1°C / 30°F
Humidity
87%
Altimeter
29.77" Hg
Pressure
1008.12 hPa
Current Rain
0.01"
Previous

1 hour ago

KGUC 201856Z AUTO 36006KT 10SM OVC008 01/M01 A2978 RMK AO2 RAB34E41SNE34 CIG 005V012 SLP086 P0005 T00061006 FZRANO
Observed
Nov-20 @ 18:56 UTC
Wind
  • 360° at 6 KTS
Visibility
10 SM
Flight Rules
IFR
Cloud Levels
  • Overcast at 800' AGL
Temperature
C / 34°F
Dewpoint
-1°C / 30°F
Humidity
87%
Altimeter
29.78" Hg
Pressure
1008.42 hPa
Current Rain
0.05"